Time;durP1;ratioP1;P1;durP2;ratioP2;P2;SDS_P1;SDS_P2;PMS_P1;PMS_P2;Temp;Humidity;BMP_temperature;BMP_pressure;BME280_temperature;BME280_humidity;BME280_pressure;Samples;Min_cycle;Max_cycle;Signal;HPM_P1;HPM_P2
2022/10/18 00:02:04;;;;;;;10.80;4.90;;;11.10;99.90;;;;;;5030734;28;20029;-80
2022/10/18 00:04:29;;;;;;;12.40;4.55;;;11.10;99.90;;;;;;5030372;28;20029;-80
2022/10/18 00:06:55;;;;;;;10.30;4.60;;;11.10;99.90;;;;;;5030568;28;20100;-79
2022/10/18 00:09:21;;;;;;;8.60;3.85;;;11.10;99.90;;;;;;5032535;28;20104;-83
2022/10/18 00:11:46;;;;;;;8.05;4.55;;;11.10;99.90;;;;;;5032606;28;20101;-83
2022/10/18 00:14:12;;;;;;;12.40;4.90;;;11.10;99.90;;;;;;5032465;28;20056;-83
2022/10/18 00:16:37;;;;;;;8.05;4.40;;;11.10;99.90;;;;;;5033079;28;20029;-83
2022/10/18 00:19:03;;;;;;;15.18;5.38;;;11.10;99.90;;;;;;5032479;28;20051;-83
2022/10/18 00:21:28;;;;;;;8.70;3.90;;;11.10;99.90;;;;;;5032456;28;20032;-83
2022/10/18 00:23:54;;;;;;;11.82;4.32;;;11.00;99.90;;;;;;5030977;28;20030;-83
2022/10/18 00:26:21;;;;;;;9.05;4.32;;;11.00;99.90;;;;;;5032090;28;20046;-83
2022/10/18 00:28:50;;;;;;;9.70;4.57;;;11.00;99.90;;;;;;5031931;28;20030;-83
2022/10/18 00:31:17;;;;;;;12.50;4.80;;;11.00;99.90;;;;;;5020926;28;20042;-83
2022/10/18 00:33:48;;;;;;;7.30;4.80;;;10.90;99.90;;;;;;5026085;28;20021;-83
2022/10/18 00:36:14;;;;;;;12.93;5.50;;;10.90;99.90;;;;;;5021778;28;20025;-83
2022/10/18 00:38:41;;;;;;;6.68;4.60;;;11.00;99.90;;;;;;5031451;28;20032;-83
2022/10/18 00:41:09;;;;;;;9.07;4.95;;;11.00;99.90;;;;;;5031202;28;20037;-83
2022/10/18 00:43:55;;;;;;;8.73;4.70;;;10.90;99.90;;;;;;5031369;28;20168;-83
2022/10/18 00:46:22;;;;;;;7.55;4.60;;;11.00;99.90;;;;;;5031171;28;20041;-83
2022/10/18 00:48:49;;;;;;;9.32;5.00;;;11.00;99.90;;;;;;5032161;28;20029;-83
2022/10/18 00:51:17;;;;;;;7.32;4.63;;;11.00;99.90;;;;;;5025392;28;20386;-83
2022/10/18 00:53:43;;;;;;;9.60;4.80;;;11.00;99.90;;;;;;5029413;28;20026;-84
2022/10/18 00:56:08;;;;;;;7.30;4.88;;;11.00;99.90;;;;;;5035610;28;20406;-83
2022/10/18 00:58:34;;;;;;;7.07;4.63;;;11.10;99.90;;;;;;5035562;28;20025;-83
2022/10/18 01:01:00;;;;;;;11.75;4.65;;;11.10;99.90;;;;;;5035726;28;20032;-83
2022/10/18 01:03:25;;;;;;;7.88;4.38;;;11.10;99.90;;;;;;5035732;28;20029;-83
2022/10/18 01:05:51;;;;;;;10.10;4.80;;;11.00;99.90;;;;;;5035843;28;20467;-83
2022/10/18 01:08:28;;;;;;;10.50;4.50;;;11.00;99.90;;;;;;5035746;28;20052;-83
2022/10/18 01:11:17;;;;;;;15.13;5.25;;;11.00;99.90;;;;;;5035699;28;20032;-83
2022/10/18 01:14:44;;;;;;;9.10;4.30;;;11.00;99.90;;;;;;5036199;28;20025;-83
2022/10/18 01:17:28;;;;;;;10.48;3.95;;;10.90;99.90;;;;;;4994145;28;20042;-83
2022/10/18 01:20:08;;;;;;;11.35;4.35;;;10.90;99.90;;;;;;5032193;28;20033;-83
2022/10/18 01:22:42;;;;;;;9.52;4.05;;;10.80;99.90;;;;;;5035527;28;20053;-83
2022/10/18 01:25:26;;;;;;;8.40;3.80;;;10.80;99.90;;;;;;5035785;28;20040;-83
2022/10/18 01:27:54;;;;;;;10.07;4.47;;;10.70;99.90;;;;;;5035349;28;20049;-83
2022/10/18 01:30:41;;;;;;;11.68;4.20;;;10.70;99.90;;;;;;5035260;28;20026;-83
2022/10/18 01:33:31;;;;;;;7.25;4.45;;;10.60;99.90;;;;;;5035200;28;20091;-83
2022/10/18 01:36:25;;;;;;;9.35;4.18;;;10.60;99.90;;;;;;5022683;28;20028;-83
2022/10/18 01:38:54;;;;;;;9.77;3.95;;;10.60;99.90;;;;;;5034887;28;20041;-83
2022/10/18 01:41:23;;;;;;;14.30;4.30;;;10.60;99.90;;;;;;5034571;28;20025;-83
2022/10/18 01:43:53;;;;;;;8.43;4.28;;;10.50;99.90;;;;;;5033868;28;20372;-83
2022/10/18 01:46:23;;;;;;;8.93;4.10;;;10.50;99.90;;;;;;5033945;28;20103;-83
2022/10/18 01:48:49;;;;;;;12.98;4.47;;;10.50;99.90;;;;;;5033822;28;20032;-83
2022/10/18 01:51:18;;;;;;;7.40;4.18;;;10.50;99.90;;;;;;5034396;28;20028;-83
2022/10/18 01:53:44;;;;;;;7.90;4.57;;;10.50;99.90;;;;;;5033950;28;20017;-83
2022/10/18 01:56:21;;;;;;;6.80;4.72;;;10.50;99.90;;;;;;5034146;28;20377;-83
2022/10/18 01:59:12;;;;;;;9.80;4.70;;;10.50;99.90;;;;;;5034329;28;20389;-83
2022/10/18 02:01:54;;;;;;;9.07;4.40;;;10.50;99.90;;;;;;5038511;28;20049;-83
2022/10/18 02:04:23;;;;;;;10.60;4.57;;;10.40;99.90;;;;;;5033476;28;20028;-83
2022/10/18 02:06:57;;;;;;;7.20;4.13;;;10.50;99.90;;;;;;5034612;28;20026;-83
2022/10/18 02:09:39;;;;;;;10.50;4.85;;;10.50;99.90;;;;;;5049172;28;20028;-83
2022/10/18 02:12:09;;;;;;;8.32;4.93;;;10.50;99.90;;;;;;5034877;28;20021;-83
2022/10/18 02:14:36;;;;;;;10.18;4.65;;;10.40;99.90;;;;;;5034441;28;20071;-83
2022/10/18 02:17:05;;;;;;;7.22;4.28;;;10.40;99.90;;;;;;5034687;28;20032;-83
2022/10/18 02:19:38;;;;;;;11.73;4.78;;;10.40;99.90;;;;;;5029256;28;20076;-83
2022/10/18 02:22:06;;;;;;;11.85;5.15;;;10.40;99.90;;;;;;5014869;28;20018;-83
2022/10/18 02:24:45;;;;;;;8.05;4.70;;;10.40;99.90;;;;;;5033106;28;20025;-83
2022/10/18 02:27:11;;;;;;;6.90;4.43;;;10.40;99.90;;;;;;5034647;28;20076;-83
2022/10/18 02:29:39;;;;;;;6.13;4.28;;;10.40;99.90;;;;;;5034026;28;20022;-83
2022/10/18 02:32:18;;;;;;;7.80;4.18;;;10.40;99.90;;;;;;5031925;28;20013;-83
2022/10/18 02:34:54;;;;;;;10.10;5.10;;;10.30;99.90;;;;;;5034329;28;20413;-83
2022/10/18 02:37:19;;;;;;;9.65;4.75;;;10.30;99.90;;;;;;5034445;28;20036;-83
2022/10/18 02:39:49;;;;;;;9.75;4.80;;;10.30;99.90;;;;;;5034050;28;20049;-83
2022/10/18 02:42:14;;;;;;;7.88;4.40;;;10.20;99.90;;;;;;5034295;28;20096;-83
2022/10/18 02:44:40;;;;;;;10.07;4.72;;;10.20;99.90;;;;;;5033564;28;20120;-83
2022/10/18 02:47:08;;;;;;;8.98;4.65;;;10.20;99.90;;;;;;5034700;28;20029;-83
2022/10/18 02:49:34;;;;;;;9.40;4.85;;;10.20;99.90;;;;;;5034499;28;20025;-83
2022/10/18 02:51:59;;;;;;;8.35;5.57;;;10.20;99.90;;;;;;5034497;28;20125;-83
2022/10/18 02:54:25;;;;;;;11.32;5.82;;;10.20;99.90;;;;;;5034289;28;20079;-83
2022/10/18 02:56:50;;;;;;;11.00;5.20;;;10.20;99.90;;;;;;5034369;28;20060;-83
2022/10/18 02:59:16;;;;;;;8.82;4.45;;;10.20;99.90;;;;;;5034723;28;20497;-83
2022/10/18 03:01:42;;;;;;;13.27;4.95;;;10.20;99.90;;;;;;5034099;28;20064;-83
2022/10/18 03:04:07;;;;;;;12.45;5.20;;;10.20;99.90;;;;;;5034197;28;20036;-83
2022/10/18 03:06:33;;;;;;;9.05;4.90;;;10.20;99.90;;;;;;5034137;28;20429;-83
2022/10/18 03:09:02;;;;;;;10.80;5.10;;;10.10;99.90;;;;;;5034111;28;20021;-83
2022/10/18 03:11:28;;;;;;;10.93;4.90;;;10.20;99.90;;;;;;5034066;28;20017;-83
2022/10/18 03:13:53;;;;;;;8.13;4.95;;;10.20;99.90;;;;;;5018754;28;20369;-83
2022/10/18 03:16:19;;;;;;;9.68;5.25;;;10.20;99.90;;;;;;5033909;28;20028;-83
2022/10/18 03:18:45;;;;;;;18.95;6.00;;;10.20;99.90;;;;;;5033686;28;20064;-83
2022/10/18 03:21:11;;;;;;;11.90;5.40;;;10.20;99.90;;;;;;5033836;28;20478;-83
2022/10/18 03:23:36;;;;;;;9.40;5.40;;;10.20;99.90;;;;;;5033970;28;20033;-83
2022/10/18 03:26:02;;;;;;;9.15;5.38;;;10.20;99.90;;;;;;5033533;28;20055;-83
2022/10/18 03:28:28;;;;;;;7.38;5.40;;;10.20;99.90;;;;;;5033642;28;20025;-83
2022/10/18 03:31:02;;;;;;;8.35;5.18;;;10.30;99.90;;;;;;5033334;28;20379;-83
2022/10/18 03:33:29;;;;;;;8.68;5.30;;;10.30;99.90;;;;;;5033665;28;20028;-83
2022/10/18 03:35:55;;;;;;;9.63;4.80;;;10.30;99.90;;;;;;5033280;28;20021;-83
2022/10/18 03:38:20;;;;;;;9.07;4.78;;;10.30;99.90;;;;;;5033346;28;20479;-83
2022/10/18 03:40:46;;;;;;;8.38;4.60;;;10.30;99.90;;;;;;5033174;28;20124;-83
2022/10/18 03:43:12;;;;;;;10.30;4.80;;;10.20;99.90;;;;;;5033104;28;20575;-83
2022/10/18 03:45:38;;;;;;;11.20;4.53;;;10.20;99.90;;;;;;5033267;28;20029;-83
2022/10/18 03:48:04;;;;;;;7.68;4.35;;;10.10;99.90;;;;;;5032950;28;20021;-83
2022/10/18 03:50:29;;;;;;;7.45;4.72;;;10.10;99.90;;;;;;5023022;28;20475;-83
2022/10/18 03:52:55;;;;;;;9.00;5.15;;;10.10;99.90;;;;;;5029971;28;20025;-83
2022/10/18 03:55:20;;;;;;;9.05;5.20;;;10.10;99.90;;;;;;5033437;28;20461;-83
2022/10/18 03:57:46;;;;;;;7.80;4.80;;;10.10;99.90;;;;;;5033420;28;20056;-83
2022/10/18 04:00:12;;;;;;;7.80;4.35;;;10.00;99.90;;;;;;5033294;28;20087;-83
2022/10/18 04:02:38;;;;;;;8.75;4.63;;;10.00;99.90;;;;;;5033203;28;20504;-83
2022/10/18 04:05:04;;;;;;;8.73;4.57;;;10.00;99.90;;;;;;5032923;28;20108;-83
2022/10/18 04:07:30;;;;;;;6.53;4.05;;;10.00;99.90;;;;;;5032643;28;20029;-83
2022/10/18 04:09:55;;;;;;;9.20;4.43;;;10.00;99.90;;;;;;5029436;28;20059;-83
2022/10/18 04:12:21;;;;;;;6.82;5.05;;;10.00;99.90;;;;;;5032558;28;20064;-83
2022/10/18 04:14:46;;;;;;;8.57;3.92;;;10.00;99.90;;;;;;5028253;28;20756;-84
2022/10/18 04:17:12;;;;;;;8.25;4.30;;;10.00;99.90;;;;;;5032174;28;20537;-83
2022/10/18 04:19:37;;;;;;;5.78;4.60;;;10.00;99.90;;;;;;5031468;28;20470;-83
2022/10/18 04:22:03;;;;;;;7.13;4.03;;;10.00;99.90;;;;;;5028899;28;20034;-84
2022/10/18 04:24:28;;;;;;;9.27;4.38;;;10.00;99.90;;;;;;5024179;28;20032;-79
2022/10/18 04:26:54;;;;;;;11.00;5.28;;;10.00;99.90;;;;;;5029480;28;20474;-79
2022/10/18 04:29:20;;;;;;;9.27;4.15;;;10.00;99.90;;;;;;5030116;28;20484;-79
2022/10/18 04:31:54;;;;;;;8.07;3.95;;;10.00;99.90;;;;;;5027652;28;20037;-78
2022/10/18 04:34:19;;;;;;;7.30;4.25;;;10.00;99.90;;;;;;5029821;28;20049;-80
2022/10/18 04:36:45;;;;;;;11.02;4.65;;;10.00;99.90;;;;;;5027451;28;20072;-80
2022/10/18 04:39:10;;;;;;;10.45;4.47;;;10.00;99.90;;;;;;5031475;28;20053;-80
2022/10/18 04:41:36;;;;;;;8.77;4.10;;;10.00;99.90;;;;;;5025769;28;20485;-80
2022/10/18 04:44:02;;;;;;;11.07;4.35;;;10.00;99.90;;;;;;5022958;28;20052;-80
2022/10/18 04:46:27;;;;;;;9.70;4.32;;;10.00;99.90;;;;;;5024148;28;20493;-80
2022/10/18 04:48:53;;;;;;;7.90;4.68;;;10.10;99.90;;;;;;5030076;28;20032;-80
2022/10/18 04:51:18;;;;;;;9.07;5.07;;;10.20;99.90;;;;;;5030180;28;20429;-80
2022/10/18 04:53:44;;;;;;;6.65;4.82;;;10.20;99.90;;;;;;5028720;28;20022;-83
2022/10/18 04:56:10;;;;;;;6.17;4.20;;;10.20;99.90;;;;;;5031694;28;20468;-83
2022/10/18 04:58:35;;;;;;;7.63;4.15;;;10.20;99.90;;;;;;5029082;28;20170;-83
2022/10/18 05:01:07;;;;;;;9.82;4.20;;;10.20;99.90;;;;;;5027937;28;20068;-83
2022/10/18 05:03:33;;;;;;;6.83;4.43;;;10.20;99.90;;;;;;5020187;28;20063;-83
2022/10/18 05:05:58;;;;;;;10.80;4.82;;;10.30;99.90;;;;;;5033101;28;20021;-79
2022/10/18 05:08:24;;;;;;;10.13;4.60;;;10.30;99.90;;;;;;5030257;28;20385;-79
2022/10/18 05:10:50;;;;;;;6.40;4.45;;;10.30;99.90;;;;;;5030602;28;20204;-79
2022/10/18 05:13:15;;;;;;;10.85;4.50;;;10.30;99.90;;;;;;5030385;28;20029;-79
2022/10/18 05:15:41;;;;;;;9.48;4.53;;;10.40;99.90;;;;;;5030215;28;20026;-79
2022/10/18 05:18:06;;;;;;;16.45;5.65;;;10.40;99.90;;;;;;5029886;28;20030;-79
2022/10/18 05:20:32;;;;;;;8.05;4.30;;;10.40;99.90;;;;;;5029660;28;20025;-79
2022/10/18 05:22:58;;;;;;;6.38;4.25;;;10.40;99.90;;;;;;5029454;28;20051;-79
2022/10/18 05:25:23;;;;;;;12.88;4.38;;;10.40;99.90;;;;;;5029615;28;20029;-79
2022/10/18 05:27:49;;;;;;;10.40;4.45;;;10.40;99.90;;;;;;5030009;28;20021;-83
2022/10/18 05:30:15;;;;;;;10.48;4.30;;;10.40;99.90;;;;;;5021233;28;20553;-79
2022/10/18 05:32:40;;;;;;;9.15;4.70;;;10.40;99.90;;;;;;5028302;28;20382;-80
2022/10/18 05:35:06;;;;;;;7.03;4.18;;;10.40;99.90;;;;;;5029323;28;20076;-80
2022/10/18 05:37:32;;;;;;;7.22;4.10;;;10.40;99.90;;;;;;5029129;28;20030;-80
2022/10/18 05:39:57;;;;;;;9.13;4.10;;;10.40;99.90;;;;;;5032907;28;20041;-84
2022/10/18 05:42:23;;;;;;;9.02;4.03;;;10.40;99.90;;;;;;5029798;28;20097;-81
2022/10/18 05:44:49;;;;;;;11.73;4.30;;;10.50;99.90;;;;;;5032078;28;20203;-80
2022/10/18 05:47:14;;;;;;;8.25;4.38;;;10.50;99.90;;;;;;5030990;28;20052;-82
2022/10/18 05:49:40;;;;;;;7.35;4.05;;;10.50;99.90;;;;;;5032535;28;20767;-81
2022/10/18 05:52:05;;;;;;;6.50;4.35;;;10.60;99.90;;;;;;5032991;28;20025;-79
2022/10/18 05:54:31;;;;;;;8.13;4.22;;;10.60;99.90;;;;;;5032709;28;20071;-79
2022/10/18 05:56:57;;;;;;;8.32;4.75;;;10.70;99.90;;;;;;5032647;28;20091;-79
2022/10/18 05:59:22;;;;;;;7.88;4.20;;;10.70;99.90;;;;;;5027526;28;20040;-79
2022/10/18 06:01:48;;;;;;;8.27;3.80;;;10.80;99.90;;;;;;5026341;28;20502;-79
2022/10/18 06:04:13;;;;;;;8.70;4.53;;;10.80;99.90;;;;;;5026724;28;20481;-79
2022/10/18 06:06:39;;;;;;;8.00;4.22;;;10.90;99.90;;;;;;5026940;28;20025;-79
2022/10/18 06:09:06;;;;;;;8.38;4.55;;;10.90;99.90;;;;;;5025459;28;20362;-79
2022/10/18 06:11:32;;;;;;;11.55;4.40;;;11.00;99.90;;;;;;5026934;28;20034;-79
2022/10/18 06:13:57;;;;;;;7.72;4.10;;;11.00;99.90;;;;;;5026964;28;20154;-79
2022/10/18 06:16:24;;;;;;;12.27;4.53;;;11.10;99.90;;;;;;5026651;28;20040;-79
2022/10/18 06:18:55;;;;;;;7.88;4.15;;;11.20;99.90;;;;;;5025317;28;20145;-79
2022/10/18 06:21:22;;;;;;;8.63;4.20;;;11.20;99.90;;;;;;5026450;28;20033;-79
2022/10/18 06:23:49;;;;;;;9.38;4.82;;;11.30;99.90;;;;;;5025591;28;20132;-79
2022/10/18 06:26:14;;;;;;;6.22;3.72;;;11.40;99.90;;;;;;5026350;28;20036;-79
2022/10/18 06:28:40;;;;;;;7.63;4.20;;;11.40;99.90;;;;;;5027550;28;20038;-84
2022/10/18 06:31:06;;;;;;;5.93;4.25;;;11.50;99.90;;;;;;5030516;28;20025;-84
2022/10/18 06:33:33;;;;;;;11.15;3.95;;;11.60;99.90;;;;;;5029756;28;20182;-84
2022/10/18 06:36:23;;;;;;;8.77;4.40;;;11.70;99.90;;;;;;5031488;28;20216;-83
2022/10/18 06:38:49;;;;;;;8.80;4.45;;;11.80;99.90;;;;;;5031185;28;21051;-83
2022/10/18 06:41:18;;;;;;;12.10;3.95;;;11.80;99.90;;;;;;5029022;28;20391;-84
2022/10/18 06:43:50;;;;;;;6.95;4.13;;;11.90;99.90;;;;;;5034708;28;20539;-83
2022/10/18 06:46:16;;;;;;;9.05;4.18;;;11.90;99.90;;;;;;5030499;28;20189;-83
2022/10/18 06:48:41;;;;;;;8.15;4.22;;;11.90;99.90;;;;;;5029411;28;20111;-83
2022/10/18 06:51:09;;;;;;;9.45;4.32;;;12.00;99.90;;;;;;5032240;28;20505;-83
2022/10/18 06:53:36;;;;;;;12.30;4.43;;;12.00;99.90;;;;;;5032101;28;21209;-83
2022/10/18 06:56:09;;;;;;;8.38;4.40;;;12.10;99.90;;;;;;5030253;28;20045;-79
2022/10/18 06:58:35;;;;;;;8.18;4.35;;;12.10;99.90;;;;;;5024822;28;20029;-79
2022/10/18 07:01:06;;;;;;;11.30;4.38;;;12.10;99.90;;;;;;5025230;28;20458;-79
2022/10/18 07:03:33;;;;;;;9.90;4.55;;;12.20;99.90;;;;;;5025490;28;21233;-79
2022/10/18 07:06:01;;;;;;;9.00;4.63;;;12.20;99.90;;;;;;5025908;28;20029;-79
2022/10/18 07:08:27;;;;;;;9.90;4.50;;;12.20;99.90;;;;;;5024532;28;20029;-78
2022/10/18 07:10:53;;;;;;;8.93;4.38;;;12.30;99.90;;;;;;5025519;28;20041;-79
2022/10/18 07:13:19;;;;;;;10.88;4.43;;;12.30;99.90;;;;;;5025952;28;20787;-79
2022/10/18 07:15:45;;;;;;;9.90;4.45;;;12.30;99.90;;;;;;5025936;28;20037;-79
2022/10/18 07:18:10;;;;;;;10.43;4.28;;;12.30;99.90;;;;;;5025750;28;20038;-79
2022/10/18 07:20:36;;;;;;;6.70;4.50;;;12.30;99.90;;;;;;5024630;28;20732;-79
2022/10/18 07:23:01;;;;;;;11.43;4.45;;;12.40;99.90;;;;;;5025526;28;20037;-79
2022/10/18 07:25:28;;;;;;;11.82;4.47;;;12.40;99.90;;;;;;5025187;28;20060;-79
2022/10/18 07:27:53;;;;;;;10.38;4.80;;;12.40;99.90;;;;;;5025360;28;20476;-79
2022/10/18 07:30:19;;;;;;;9.95;4.82;;;12.50;99.90;;;;;;5023139;28;20026;-79
2022/10/18 07:32:44;;;;;;;7.80;3.85;;;12.50;99.90;;;;;;5025511;28;20374;-79
2022/10/18 07:35:10;;;;;;;6.35;4.45;;;12.50;99.90;;;;;;5025552;28;20032;-79
2022/10/18 07:37:36;;;;;;;9.98;4.47;;;12.60;99.90;;;;;;5024876;28;20171;-79
2022/10/18 07:40:01;;;;;;;6.95;4.07;;;12.60;99.90;;;;;;5023751;28;20779;-79
2022/10/18 07:42:27;;;;;;;9.68;4.60;;;12.60;99.90;;;;;;5025110;28;20375;-79
2022/10/18 07:44:52;;;;;;;9.88;4.32;;;12.70;99.90;;;;;;5023796;28;20443;-79
2022/10/18 07:47:18;;;;;;;7.75;4.28;;;12.70;99.90;;;;;;5023913;28;20033;-79
2022/10/18 07:49:44;;;;;;;9.05;4.40;;;12.80;99.90;;;;;;5024405;28;20112;-79
2022/10/18 07:52:10;;;;;;;13.15;5.72;;;12.90;99.90;;;;;;5017993;28;20782;-79
2022/10/18 07:54:36;;;;;;;10.43;4.30;;;12.90;99.90;;;;;;5027502;28;20378;-79
2022/10/18 07:57:03;;;;;;;5.05;3.75;;;13.00;99.90;;;;;;5026186;28;20037;-79
2022/10/18 07:59:29;;;;;;;10.52;4.40;;;13.10;99.90;;;;;;5025138;28;20025;-79
2022/10/18 08:01:54;;;;;;;8.88;4.80;;;13.10;99.90;;;;;;5029879;28;20026;-79
2022/10/18 08:04:20;;;;;;;10.30;4.38;;;13.20;99.90;;;;;;5030489;28;20029;-79
2022/10/18 08:06:46;;;;;;;10.35;4.70;;;13.30;99.90;;;;;;5020355;28;20029;-79
2022/10/18 08:09:14;;;;;;;8.60;5.00;;;13.50;99.90;;;;;;5025086;28;20526;-79
2022/10/18 08:11:39;;;;;;;7.93;4.35;;;13.70;99.90;;;;;;5024426;28;20115;-79
2022/10/18 08:14:05;;;;;;;8.85;3.85;;;13.90;99.90;;;;;;5024501;28;20482;-79
2022/10/18 08:16:30;;;;;;;11.13;4.25;;;14.10;99.90;;;;;;5023413;28;20494;-79
2022/10/18 08:18:57;;;;;;;10.20;3.92;;;14.20;99.90;;;;;;5024469;28;20024;-79
2022/10/18 08:21:23;;;;;;;7.18;4.45;;;14.50;99.90;;;;;;5024624;28;20046;-79
2022/10/18 08:23:49;;;;;;;9.75;3.83;;;14.70;99.90;;;;;;5024609;28;20037;-79
2022/10/18 08:26:19;;;;;;;8.55;3.60;;;14.90;99.90;;;;;;5023617;28;20354;-79
2022/10/18 08:28:45;;;;;;;14.63;3.80;;;15.10;99.90;;;;;;5024564;28;20147;-79
2022/10/18 08:31:16;;;;;;;9.05;3.92;;;15.40;99.90;;;;;;5023482;28;21177;-80
2022/10/18 08:33:41;;;;;;;13.00;4.50;;;15.60;99.90;;;;;;5024714;28;20129;-79
2022/10/18 08:36:09;;;;;;;9.25;3.75;;;15.90;99.90;;;;;;5023350;28;20167;-80
2022/10/18 08:38:36;;;;;;;6.10;3.58;;;16.20;99.90;;;;;;5023789;28;20164;-80
2022/10/18 08:41:24;;;;;;;10.25;3.72;;;16.40;99.90;;;;;;5024341;28;20041;-80
2022/10/18 08:44:01;;;;;;;8.60;3.55;;;16.70;99.90;;;;;;5024518;28;20029;-80
2022/10/18 08:46:27;;;;;;;6.32;3.10;;;17.00;99.90;;;;;;5024863;28;20037;-80
2022/10/18 08:48:55;;;;;;;10.18;3.50;;;17.40;99.90;;;;;;5031703;28;20033;-80
2022/10/18 08:51:30;;;;;;;9.30;3.30;;;17.70;99.90;;;;;;5029970;28;20029;-84
2022/10/18 08:54:03;;;;;;;9.70;3.28;;;18.10;99.90;;;;;;5032152;28;20022;-84
2022/10/18 08:56:29;;;;;;;8.05;3.20;;;18.40;99.90;;;;;;5027561;28;20025;-84
2022/10/18 08:58:55;;;;;;;8.77;3.67;;;18.60;99.90;;;;;;5028476;28;20026;-84
2022/10/18 09:02:09;;;;;;;7.75;3.50;;;18.90;99.90;;;;;;5028210;28;20111;-84
2022/10/18 09:05:26;;;;;;;10.10;3.28;;;19.00;99.90;;;;;;4986332;28;20027;-84
2022/10/18 09:07:57;;;;;;;;;;;19.20;99.90;;;;;;5033900;28;20057;-80
2022/10/18 09:10:44;;;;;;;9.20;3.30;;;19.40;99.90;;;;;;5027274;28;19912;-80
2022/10/18 09:13:31;;;;;;;6.00;3.28;;;19.60;99.90;;;;;;5032389;28;20022;-80
2022/10/18 09:16:07;;;;;;;4.13;3.15;;;19.80;99.90;;;;;;5033652;28;20763;-80
2022/10/18 09:18:50;;;;;;;7.72;3.10;;;19.90;99.90;;;;;;5033830;28;20021;-80
2022/10/18 09:21:18;;;;;;;6.55;2.83;;;20.00;99.90;;;;;;5022174;28;20105;-80
2022/10/18 09:23:48;;;;;;;6.25;2.97;;;20.00;99.90;;;;;;5033435;28;20025;-80
2022/10/18 09:26:19;;;;;;;6.93;3.22;;;20.00;99.90;;;;;;5033396;28;20021;-80
2022/10/18 09:29:36;;;;;;;7.85;3.42;;;20.00;99.90;;;;;;5033452;28;20017;-80
2022/10/18 09:32:27;;;;;;;8.90;3.30;;;19.80;99.90;;;;;;5031572;28;20033;-80
2022/10/18 09:34:57;;;;;;;4.18;3.28;;;19.70;99.90;;;;;;5021545;28;20060;-80
2022/10/18 09:37:26;;;;;;;6.72;3.40;;;19.60;99.90;;;;;;5033154;28;20527;-80
2022/10/18 09:39:59;;;;;;;6.65;3.08;;;19.40;99.90;;;;;;5031768;28;20513;-80
2022/10/18 09:42:36;;;;;;;5.22;3.28;;;19.20;99.90;;;;;;5033142;28;20025;-80
2022/10/18 09:45:32;;;;;;;6.72;3.20;;;19.10;99.90;;;;;;5033173;28;20044;-80
2022/10/18 09:48:12;;;;;;;5.20;3.17;;;19.00;99.90;;;;;;5033108;28;20373;-80
2022/10/18 09:51:00;;;;;;;5.43;3.45;;;18.90;99.90;;;;;;5032485;28;20029;-80
2022/10/18 09:53:41;;;;;;;8.15;3.50;;;18.90;99.90;;;;;;5032327;28;20077;-80
2022/10/18 09:56:13;;;;;;;5.18;3.05;;;18.90;99.90;;;;;;5032166;28;20418;-81
2022/10/18 09:58:45;;;;;;;7.95;3.08;;;19.00;99.90;;;;;;5032402;28;20470;-80
2022/10/18 10:01:14;;;;;;;7.25;3.33;;;18.90;99.90;;;;;;5031976;28;20032;-80
2022/10/18 10:03:41;;;;;;;6.22;3.35;;;18.90;99.90;;;;;;5032046;28;20027;-80
2022/10/18 10:06:15;;;;;;;7.63;3.25;;;18.90;99.90;;;;;;5031649;28;20021;-80
2022/10/18 10:08:43;;;;;;;8.25;4.10;;;18.90;99.90;;;;;;5031603;28;20064;-80
2022/10/18 10:11:33;;;;;;;8.27;3.70;;;18.90;99.90;;;;;;5032500;28;20042;-80
2022/10/18 10:14:26;;;;;;;7.63;3.20;;;19.10;99.90;;;;;;5032626;28;20017;-80
2022/10/18 10:17:04;;;;;;;5.80;3.45;;;19.30;99.90;;;;;;5032739;28;20025;-81
2022/10/18 10:19:53;;;;;;;9.05;3.53;;;19.50;99.90;;;;;;5032647;28;20487;-80
2022/10/18 10:22:27;;;;;;;7.15;3.30;;;19.80;99.90;;;;;;5032708;28;20787;-81
2022/10/18 10:24:54;;;;;;;7.03;3.67;;;20.10;99.90;;;;;;5031868;28;20060;-80
2022/10/18 10:27:57;;;;;;;10.93;3.67;;;20.30;99.90;;;;;;5032221;28;20486;-80
2022/10/18 10:30:34;;;;;;;10.52;3.95;;;20.50;99.90;;;;;;5019999;28;20064;-81
2022/10/18 10:33:00;;;;;;;7.93;4.07;;;20.60;99.90;;;;;;5019293;28;20026;-81
2022/10/18 10:35:44;;;;;;;8.13;3.70;;;20.80;99.90;;;;;;5032091;28;20436;-80
2022/10/18 10:38:22;;;;;;;8.57;3.42;;;20.90;99.90;;;;;;5015532;28;20036;-81
2022/10/18 10:40:49;;;;;;;6.90;3.95;;;20.90;99.90;;;;;;5027730;28;20045;-80
2022/10/18 10:43:14;;;;;;;7.10;3.58;;;20.90;99.90;;;;;;5031933;28;20029;-80
2022/10/18 10:46:06;;;;;;;7.75;4.18;;;21.10;99.90;;;;;;5032148;28;20044;-81
2022/10/18 10:48:39;;;;;;;6.40;3.70;;;21.10;99.90;;;;;;5035745;28;20026;-80
2022/10/18 10:51:08;;;;;;;8.00;3.70;;;21.20;99.90;;;;;;5031950;28;20045;-80
2022/10/18 10:53:58;;;;;;;4.72;3.10;;;21.30;99.90;;;;;;5031666;28;20026;-81
2022/10/18 10:56:27;;;;;;;5.43;2.92;;;21.40;99.90;;;;;;5031322;28;20021;-80
2022/10/18 10:58:55;;;;;;;7.45;3.70;;;21.60;99.90;;;;;;5031495;28;20088;-81
2022/10/18 11:01:24;;;;;;;7.63;3.40;;;21.70;99.90;;;;;;5031196;28;20053;-80
2022/10/18 11:03:53;;;;;;;6.70;3.28;;;21.90;99.90;;;;;;5029955;28;20351;-81
2022/10/18 11:06:36;;;;;;;10.02;3.63;;;22.10;99.90;;;;;;5031536;28;20098;-80
2022/10/18 11:09:08;;;;;;;6.45;2.90;;;22.40;99.90;;;;;;5031301;28;20028;-80
2022/10/18 11:11:45;;;;;;;10.25;3.20;;;22.50;99.90;;;;;;5031349;28;20027;-81
2022/10/18 11:14:42;;;;;;;7.07;3.78;;;22.50;99.90;;;;;;5031425;28;20041;-81
2022/10/18 11:17:34;;;;;;;7.60;3.38;;;22.60;99.90;;;;;;5030362;28;20540;-81
2022/10/18 11:20:05;;;;;;;7.32;3.20;;;22.70;99.90;;;;;;5029424;28;20359;-84
2022/10/18 11:23:04;;;;;;;7.05;3.30;;;22.70;99.90;;;;;;5030313;28;20035;-83
2022/10/18 11:26:04;;;;;;;10.65;4.20;;;22.60;99.90;;;;;;5030304;28;20030;-80
2022/10/18 11:28:35;;;;;;;8.02;3.70;;;22.70;99.90;;;;;;5009354;28;20135;-71
2022/10/18 11:31:03;;;;;;;9.25;3.40;;;22.80;99.90;;;;;;5028541;28;20044;-71
2022/10/18 11:33:28;;;;;;;9.15;3.35;;;22.80;99.90;;;;;;5030601;28;20083;-71
2022/10/18 11:36:15;;;;;;;10.20;3.60;;;22.80;99.90;;;;;;5026064;28;20104;-71
2022/10/18 11:38:54;;;;;;;9.85;3.40;;;22.90;99.90;;;;;;5024932;28;20025;-72
2022/10/18 11:41:44;;;;;;;7.43;3.38;;;23.00;99.90;;;;;;5024851;28;20535;-71
2022/10/18 11:44:22;;;;;;;6.78;2.80;;;23.20;99.90;;;;;;5024664;28;20038;-72
2022/10/18 11:46:50;;;;;;;8.10;3.50;;;23.40;99.90;;;;;;5024499;28;20091;-71
2022/10/18 11:49:41;;;;;;;9.63;3.25;;;23.50;99.90;;;;;;5025945;28;20025;-71
2022/10/18 11:52:20;;;;;;;7.75;3.42;;;23.60;99.90;;;;;;5024934;28;20038;-71
2022/10/18 11:55:27;;;;;;;6.30;3.25;;;23.80;99.90;;;;;;5026168;28;20098;-72
2022/10/18 11:57:59;;;;;;;7.72;3.35;;;23.60;99.90;;;;;;5025444;28;20040;-71
2022/10/18 12:00:38;;;;;;;5.30;2.90;;;23.90;99.90;;;;;;5025568;28;21153;-71
2022/10/18 12:03:09;;;;;;;5.25;3.00;;;23.90;99.90;;;;;;5022327;28;20095;-71
2022/10/18 12:05:37;;;;;;;5.93;2.90;;;23.90;99.90;;;;;;5023406;28;20034;-71
2022/10/18 12:08:21;;;;;;;5.30;2.65;;;23.90;99.90;;;;;;5019885;28;20490;-76
2022/10/18 12:10:51;;;;;;;8.52;2.75;;;23.90;99.90;;;;;;5020763;28;20418;-76
2022/10/18 12:13:44;;;;;;;7.57;2.78;;;23.90;99.90;;;;;;5021592;28;20798;-76
2022/10/18 12:16:11;;;;;;;6.93;3.08;;;23.90;99.90;;;;;;5021822;28;20050;-76
2022/10/18 12:18:51;;;;;;;8.77;2.83;;;24.00;99.90;;;;;;5024074;28;20151;-76
2022/10/18 12:21:20;;;;;;;6.90;2.60;;;23.90;99.90;;;;;;5021924;28;20033;-76
2022/10/18 12:23:59;;;;;;;4.40;2.20;;;23.90;99.90;;;;;;5022529;28;20779;-76
2022/10/18 12:26:27;;;;;;;4.15;2.05;;;24.00;99.90;;;;;;5023649;28;20068;-76
2022/10/18 12:29:21;;;;;;;4.60;2.33;;;24.30;99.90;;;;;;5023694;28;20026;-76
2022/10/18 12:32:06;;;;;;;7.00;2.72;;;24.30;99.90;;;;;;5020955;28;20081;-76
2022/10/18 12:34:34;;;;;;;4.88;2.40;;;24.30;99.90;;;;;;5023341;28;20026;-76
2022/10/18 12:37:25;;;;;;;8.43;2.40;;;24.10;99.90;;;;;;5023542;28;20029;-76
2022/10/18 12:39:55;;;;;;;10.07;2.67;;;23.80;99.90;;;;;;5023138;28;20058;-76
2022/10/18 12:42:24;;;;;;;7.90;2.85;;;23.50;99.90;;;;;;5020888;28;20034;-76
2022/10/18 12:45:01;;;;;;;7.30;3.15;;;23.20;99.90;;;;;;5023190;28;20131;-75
2022/10/18 12:47:29;;;;;;;5.97;2.55;;;23.00;99.90;;;;;;5025314;28;20025;-79
2022/10/18 12:49:58;;;;;;;5.57;2.83;;;22.70;99.90;;;;;;5026731;28;20076;-78
2022/10/18 12:52:27;;;;;;;5.20;2.55;;;22.70;99.90;;;;;;5026805;28;20057;-79
2022/10/18 12:55:18;;;;;;;17.23;3.67;;;22.70;99.90;;;;;;5013213;28;20091;-79
2022/10/18 12:57:53;;;;;;;7.40;3.13;;;22.80;99.90;;;;;;5000511;28;21203;-79
2022/10/18 13:00:30;;;;;;;8.73;3.03;;;23.00;99.90;;;;;;5003766;28;20037;-78
2022/10/18 13:03:08;;;;;;;6.38;2.78;;;23.50;99.90;;;;;;5005325;28;20031;-78
2022/10/18 13:05:56;;;;;;;10.90;2.85;;;23.80;99.90;;;;;;5005347;28;20080;-78
2022/10/18 13:08:28;;;;;;;9.68;2.50;;;24.10;99.90;;;;;;5018989;28;20030;-77